createdAt,value
2019-01-13T00:02:00.559Z,26.67
2019-01-13T00:04:31.476Z,34.03
2019-01-13T00:07:01.779Z,30.17
2019-01-13T00:09:33.027Z,29.43
2019-01-13T00:12:04.850Z,29.13
2019-01-13T00:14:35.183Z,29.30
2019-01-13T00:17:06.185Z,34.57
2019-01-13T00:19:36.507Z,32.00
2019-01-13T00:22:09.742Z,26.53
2019-01-13T00:24:40.640Z,30.23
2019-01-13T00:27:11.471Z,32.93
2019-01-13T00:29:42.217Z,33.73
2019-01-13T00:32:12.541Z,36.83
2019-01-13T00:34:43.279Z,26.73
2019-01-13T00:37:14.094Z,26.03
2019-01-13T00:39:45.771Z,30.47
2019-01-13T00:42:17.118Z,28.13
2019-01-13T00:44:47.498Z,29.97
2019-01-13T00:47:18.260Z,28.73
2019-01-13T00:49:48.550Z,25.93
2019-01-13T00:52:18.827Z,27.53
2019-01-13T00:54:50.494Z,27.60
2019-01-13T00:57:21.246Z,33.17
2019-01-13T00:59:52.552Z,27.23
2019-01-13T01:02:22.847Z,29.57
2019-01-13T01:04:53.204Z,27.10
2019-01-13T01:07:24.168Z,30.80
2019-01-13T01:09:55.417Z,34.60
2019-01-13T01:12:27.223Z,30.73
2019-01-13T01:14:57.574Z,30.07
2019-01-13T01:17:28.416Z,29.87
2019-01-13T01:19:58.770Z,34.43
2019-01-13T01:22:29.074Z,27.07
2019-01-13T01:24:59.337Z,32.07
2019-01-13T01:27:29.711Z,26.87
2019-01-13T01:30:00.561Z,27.93
2019-01-13T01:32:30.852Z,26.87
2019-01-13T01:35:01.153Z,25.33
2019-01-13T01:37:31.459Z,29.33
2019-01-13T01:40:01.831Z,31.80
2019-01-13T01:42:32.571Z,25.67
2019-01-13T01:45:03.356Z,25.90
2019-01-13T01:47:33.630Z,26.30
2019-01-13T01:50:05.444Z,26.93
2019-01-13T01:52:36.182Z,26.27
2019-01-13T01:55:08.140Z,25.67
2019-01-13T01:57:38.426Z,24.03
2019-01-13T02:00:14.464Z,27.17
2019-01-13T02:02:45.368Z,29.80
2019-01-13T02:05:15.866Z,22.27
2019-01-13T02:07:46.533Z,24.17
2019-01-13T02:10:20.424Z,25.80
2019-01-13T02:12:52.586Z,23.90
2019-01-13T02:15:25.962Z,26.20
2019-01-13T02:17:56.371Z,22.27
2019-01-13T02:20:26.842Z,23.93
2019-01-13T02:22:57.789Z,26.30
2019-01-13T02:25:29.406Z,24.43
2019-01-13T02:28:00.717Z,21.87
2019-01-13T02:30:31.080Z,22.87
2019-01-13T02:33:02.393Z,23.13
2019-01-13T02:35:33.146Z,24.73
2019-01-13T02:38:03.468Z,25.63
2019-01-13T02:40:33.841Z,21.80
2019-01-13T02:43:04.152Z,22.73
2019-01-13T02:45:35.039Z,19.50
2019-01-13T02:48:06.206Z,22.23
2019-01-13T02:50:36.515Z,22.27
2019-01-13T02:53:06.840Z,19.30
2019-01-13T02:55:38.598Z,18.93
2019-01-13T02:58:08.943Z,19.93
2019-01-13T03:00:39.249Z,23.47
2019-01-13T03:03:12.032Z,19.37
2019-01-13T03:05:42.359Z,19.50
2019-01-13T03:08:13.217Z,21.03
2019-01-13T03:10:43.497Z,17.33
2019-01-13T03:13:14.947Z,16.83
2019-01-13T03:15:45.237Z,21.97
2019-01-13T03:18:17.167Z,19.77
2019-01-13T03:20:47.461Z,17.10
2019-01-13T03:23:17.737Z,18.53
2019-01-13T03:25:48.094Z,16.47
2019-01-13T03:28:18.980Z,17.13
2019-01-13T03:30:49.305Z,14.83
2019-01-13T03:33:19.635Z,16.33
2019-01-13T03:35:50.385Z,15.20
2019-01-13T03:38:21.187Z,16.13
2019-01-13T03:40:51.666Z,13.77
2019-01-13T03:43:21.957Z,13.27
2019-01-13T03:45:52.699Z,13.60
2019-01-13T03:48:23.509Z,11.83
2019-01-13T03:50:54.271Z,11.87
2019-01-13T03:53:24.616Z,12.07
2019-01-13T03:55:54.938Z,10.43
2019-01-13T03:58:25.710Z,11.30
2019-01-13T04:00:56.003Z,14.37
2019-01-13T04:03:26.517Z,14.50
2019-01-13T04:05:56.791Z,10.97
2019-01-13T04:08:29.212Z,10.70
2019-01-13T04:10:59.511Z,11.47
2019-01-13T04:13:30.808Z,14.17
2019-01-13T04:16:01.929Z,12.63
2019-01-13T04:18:32.664Z,11.63
2019-01-13T04:21:02.993Z,12.67
2019-01-13T04:23:34.252Z,13.43
2019-01-13T04:26:04.640Z,15.10
2019-01-13T04:28:35.610Z,14.47
2019-01-13T04:31:05.914Z,12.13
2019-01-13T04:33:36.570Z,14.23
2019-01-13T04:36:06.833Z,11.70
2019-01-13T04:38:38.139Z,10.90
2019-01-13T04:41:08.438Z,13.17
2019-01-13T04:43:38.708Z,12.77
2019-01-13T04:46:09.427Z,10.00
2019-01-13T04:48:40.181Z,12.20
2019-01-13T04:51:10.772Z,12.63
2019-01-13T04:53:42.122Z,11.13
2019-01-13T04:56:13.696Z,11.20
2019-01-13T04:58:44.477Z,10.50
2019-01-13T05:01:15.088Z,10.17
2019-01-13T05:03:45.751Z,12.13
2019-01-13T05:06:16.047Z,10.17
2019-01-13T05:08:46.835Z,10.43
2019-01-13T05:11:18.218Z,10.27
2019-01-13T05:13:49.428Z,12.10
2019-01-13T05:16:21.141Z,10.93
2019-01-13T05:18:51.931Z,12.17
2019-01-13T05:21:22.257Z,13.50
2019-01-13T05:23:52.527Z,11.07
2019-01-13T05:26:24.268Z,11.33
2019-01-13T05:28:55.004Z,10.00
2019-01-13T05:31:25.331Z,9.93
2019-01-13T05:33:55.702Z,9.87
2019-01-13T05:36:25.978Z,10.63
2019-01-13T05:38:56.813Z,10.00
2019-01-13T05:41:27.180Z,9.13
2019-01-13T05:43:58.009Z,9.20
2019-01-13T05:46:28.306Z,8.63
2019-01-13T05:48:59.044Z,9.10
2019-01-13T05:51:29.411Z,11.17
2019-01-13T05:53:59.695Z,10.87
2019-01-13T05:56:31.341Z,8.80
2019-01-13T05:59:02.085Z,11.80
2019-01-13T06:01:33.957Z,9.47
2019-01-13T06:04:04.395Z,9.43
2019-01-13T06:06:34.699Z,10.17
2019-01-13T06:09:07.851Z,9.70
2019-01-13T06:11:38.257Z,12.23
2019-01-13T06:14:10.805Z,12.20
2019-01-13T06:16:41.208Z,11.07
2019-01-13T06:19:12.087Z,11.13
2019-01-13T06:21:42.412Z,10.60
2019-01-13T06:24:12.695Z,12.33
2019-01-13T06:26:43.043Z,14.23
2019-01-13T06:29:13.875Z,11.07
2019-01-13T06:31:45.029Z,10.30
2019-01-13T06:34:15.319Z,11.10
2019-01-13T06:36:45.599Z,10.13
2019-01-13T06:39:16.356Z,9.10
2019-01-13T06:41:46.720Z,10.77
2019-01-13T06:44:17.100Z,16.10
2019-01-13T06:46:47.372Z,9.60
2019-01-13T06:49:18.999Z,9.30
2019-01-13T06:51:50.197Z,12.03
2019-01-13T06:54:20.592Z,10.73
2019-01-13T06:56:51.054Z,10.77
2019-01-13T06:59:22.251Z,12.70
2019-01-13T07:01:52.527Z,11.10
2019-01-13T07:04:24.420Z,10.27
2019-01-13T07:06:54.782Z,9.33
2019-01-13T07:09:25.622Z,12.23
2019-01-13T07:11:55.892Z,9.03
2019-01-13T07:14:27.425Z,11.13
2019-01-13T07:16:57.696Z,9.70
2019-01-13T07:19:29.943Z,8.27
2019-01-13T07:22:00.249Z,10.20
2019-01-13T07:24:30.548Z,9.93
2019-01-13T07:27:01.330Z,8.63
2019-01-13T07:29:31.619Z,9.50
2019-01-13T07:32:02.392Z,7.53
2019-01-13T07:34:32.693Z,6.00
2019-01-13T07:37:02.979Z,6.37
2019-01-13T07:39:33.283Z,5.50
2019-01-13T07:42:04.063Z,10.07
2019-01-13T07:44:34.344Z,5.73
2019-01-13T07:47:04.638Z,5.83
2019-01-13T07:49:34.964Z,5.47
2019-01-13T07:52:05.911Z,6.80
2019-01-13T07:54:37.249Z,4.53
2019-01-13T07:57:07.535Z,4.20
2019-01-13T07:59:37.837Z,4.43
2019-01-13T08:02:08.635Z,4.50
2019-01-13T08:04:39.025Z,4.50
2019-01-13T08:07:09.291Z,4.37
2019-01-13T08:09:39.609Z,5.70
2019-01-13T08:12:10.943Z,4.37
2019-01-13T08:14:42.311Z,5.00
2019-01-13T08:17:12.646Z,4.70
2019-01-13T08:19:42.923Z,6.20
2019-01-13T08:22:13.230Z,5.90
2019-01-13T08:24:44.067Z,5.80
2019-01-13T08:27:14.871Z,5.23
2019-01-13T08:29:45.145Z,5.60
2019-01-13T08:32:15.494Z,7.37
2019-01-13T08:34:45.820Z,6.50
2019-01-13T08:37:16.659Z,7.37
2019-01-13T08:39:46.942Z,5.97
2019-01-13T08:42:17.281Z,6.80
2019-01-13T08:44:47.635Z,7.27
2019-01-13T08:47:17.939Z,7.67
2019-01-13T08:49:48.844Z,8.13
2019-01-13T08:52:19.252Z,6.40
2019-01-13T08:54:49.537Z,7.50
2019-01-13T08:57:20.213Z,7.13
2019-01-13T08:59:50.867Z,5.83
2019-01-13T09:02:21.721Z,7.60
2019-01-13T09:04:52.094Z,6.83
2019-01-13T09:07:22.576Z,7.40
2019-01-13T09:09:53.379Z,8.07
2019-01-13T09:12:23.943Z,7.27
2019-01-13T09:14:55.873Z,9.33
2019-01-13T09:17:27.028Z,9.57
2019-01-13T09:19:57.835Z,9.13
2019-01-13T09:22:28.116Z,8.73
2019-01-13T09:24:58.426Z,9.67
2019-01-13T09:27:28.741Z,11.73
2019-01-13T09:29:59.163Z,13.83
2019-01-13T09:32:30.103Z,10.23
2019-01-13T09:35:01.369Z,11.20
2019-01-13T09:37:31.657Z,11.90
2019-01-13T09:40:01.993Z,12.13
2019-01-13T09:42:32.678Z,12.93
2019-01-13T09:45:03.064Z,11.23
2019-01-13T09:47:33.347Z,11.03
2019-01-13T09:50:05.456Z,13.83
2019-01-13T09:52:36.318Z,13.27
2019-01-13T09:55:07.971Z,13.07
2019-01-13T09:57:38.243Z,13.30
2019-01-13T10:00:13.629Z,14.33
2019-01-13T10:02:46.873Z,13.17
2019-01-13T10:05:17.365Z,17.83
2019-01-13T10:07:47.671Z,15.87
2019-01-13T10:10:18.018Z,16.40
2019-01-13T10:12:48.300Z,15.83
2019-01-13T10:15:21.449Z,19.37
2019-01-13T10:17:52.762Z,18.60
2019-01-13T10:20:23.707Z,18.57
2019-01-13T10:22:54.233Z,20.00
2019-01-13T10:25:25.607Z,23.60
2019-01-13T10:27:55.992Z,20.37
2019-01-13T10:30:28.508Z,19.73
2019-01-13T10:32:58.794Z,21.93
2019-01-13T10:35:30.288Z,21.57
2019-01-13T10:38:00.585Z,20.33
2019-01-13T10:40:32.182Z,20.20
2019-01-13T10:43:02.492Z,26.90
2019-01-13T10:45:33.259Z,22.97
2019-01-13T10:48:03.558Z,25.30
2019-01-13T10:50:34.586Z,21.13
2019-01-13T10:53:07.135Z,23.47
2019-01-13T10:55:37.998Z,25.20
2019-01-13T10:58:08.342Z,27.43
2019-01-13T11:00:39.515Z,21.67
2019-01-13T11:03:09.797Z,24.43
2019-01-13T11:05:41.250Z,21.43
2019-01-13T11:08:12.800Z,19.57
2019-01-13T11:10:43.235Z,20.63
2019-01-13T11:13:13.555Z,20.70
2019-01-13T11:15:45.230Z,22.10
2019-01-13T11:18:15.536Z,22.80
2019-01-13T11:20:47.092Z,21.27
2019-01-13T11:23:17.556Z,26.33
2019-01-13T11:25:48.560Z,24.93
2019-01-13T11:28:18.889Z,27.53
2019-01-13T11:30:49.322Z,25.13
2019-01-13T11:33:19.615Z,22.37
2019-01-13T11:35:51.653Z,29.07
2019-01-13T11:38:21.936Z,24.90
2019-01-13T11:40:52.313Z,27.37
2019-01-13T11:43:22.607Z,22.03
2019-01-13T11:45:53.553Z,20.63
2019-01-13T11:48:23.831Z,30.17
2019-01-13T11:50:55.734Z,21.03
2019-01-13T11:53:26.061Z,25.63
2019-01-13T11:55:57.001Z,21.37
2019-01-13T11:58:27.611Z,24.67
2019-01-13T12:00:57.997Z,20.77
2019-01-13T12:03:28.299Z,19.23
2019-01-13T12:06:00.434Z,20.93
2019-01-13T12:08:30.753Z,16.10
2019-01-13T12:11:01.089Z,15.03
2019-01-13T12:13:31.386Z,15.23
2019-01-13T12:16:03.272Z,15.97
2019-01-13T12:18:40.345Z,15.17
2019-01-13T12:21:06.018Z,14.93
2019-01-13T12:23:36.319Z,15.97
2019-01-13T12:26:07.234Z,13.83
2019-01-13T12:28:37.560Z,16.10
2019-01-13T12:31:07.897Z,16.60
2019-01-13T12:33:38.195Z,12.30
2019-01-13T12:36:10.740Z,12.10
2019-01-13T12:38:41.184Z,8.70
2019-01-13T12:41:13.192Z,13.33
2019-01-13T12:43:43.466Z,8.83
2019-01-13T12:46:14.247Z,10.20
2019-01-13T12:48:44.523Z,8.47
2019-01-13T12:51:15.411Z,9.83
2019-01-13T12:53:45.744Z,8.43
2019-01-13T12:56:16.679Z,8.37
2019-01-13T12:58:46.973Z,11.33
2019-01-13T13:01:17.279Z,6.57
2019-01-13T13:03:47.559Z,7.27
2019-01-13T13:06:19.929Z,8.57
2019-01-13T13:08:50.332Z,5.73
2019-01-13T13:11:20.600Z,6.53
2019-01-13T13:13:50.987Z,5.67
2019-01-13T13:16:22.538Z,5.73
2019-01-13T13:18:52.972Z,8.40
2019-01-13T13:21:23.527Z,6.23
2019-01-13T13:23:54.771Z,6.80
2019-01-13T13:26:25.524Z,7.83
2019-01-13T13:28:55.973Z,5.63
2019-01-13T13:31:26.256Z,7.97
2019-01-13T13:33:56.539Z,6.53
2019-01-13T13:36:27.336Z,6.10
2019-01-13T13:38:59.077Z,5.23
2019-01-13T13:41:30.429Z,4.80
2019-01-13T13:44:00.730Z,5.00
2019-01-13T13:46:31.181Z,4.50
2019-01-13T13:49:01.586Z,5.53
2019-01-13T13:51:32.449Z,5.53
2019-01-13T13:54:02.728Z,5.47
2019-01-13T13:56:34.354Z,4.57
2019-01-13T13:59:04.653Z,5.80
2019-01-13T14:01:36.255Z,6.37
2019-01-13T14:04:06.537Z,8.63
2019-01-13T14:06:36.839Z,6.17
2019-01-13T14:09:09.172Z,7.67
2019-01-13T14:11:40.725Z,4.70
2019-01-13T14:14:11.122Z,6.03
2019-01-13T14:16:43.417Z,9.27
2019-01-13T14:19:16.356Z,4.60
2019-01-13T14:21:47.560Z,14.67
2019-01-13T14:24:17.891Z,6.20
2019-01-13T14:26:49.105Z,4.63
2019-01-13T14:29:19.423Z,4.23
2019-01-13T14:31:50.572Z,4.73
2019-01-13T14:34:20.919Z,4.60
2019-01-13T14:36:51.549Z,5.33
2019-01-13T14:39:21.851Z,4.67
2019-01-13T14:41:53.170Z,8.33
2019-01-13T14:44:23.495Z,6.00
2019-01-13T14:46:54.265Z,5.23
2019-01-13T14:49:24.594Z,4.70
2019-01-13T14:51:55.449Z,4.03
2019-01-13T14:54:25.810Z,4.53
2019-01-13T14:56:57.343Z,4.50
2019-01-13T14:59:27.660Z,5.20
2019-01-13T15:01:58.497Z,5.53
2019-01-13T15:04:28.921Z,15.90
2019-01-13T15:06:59.226Z,37.30
2019-01-13T15:09:29.534Z,13.53
2019-01-13T15:12:00.798Z,6.43
2019-01-13T15:14:31.126Z,8.47
2019-01-13T15:17:01.659Z,8.17
2019-01-13T15:19:32.026Z,6.83
2019-01-13T15:22:02.789Z,7.50
2019-01-13T15:24:33.191Z,10.90
2019-01-13T15:27:03.468Z,10.47
2019-01-13T15:29:33.850Z,46.50
2019-01-13T15:32:04.638Z,17.90
2019-01-13T15:34:35.024Z,23.50
2019-01-13T15:37:05.356Z,14.87
2019-01-13T15:39:35.620Z,13.20
2019-01-13T15:42:05.923Z,8.93
2019-01-13T15:44:36.883Z,7.47
2019-01-13T15:47:07.316Z,8.43
2019-01-13T15:49:37.638Z,7.83
2019-01-13T15:52:07.982Z,9.70
2019-01-13T15:54:38.886Z,10.03
2019-01-13T15:57:09.208Z,12.63
2019-01-13T15:59:39.520Z,9.87
2019-01-13T16:02:10.913Z,14.10
2019-01-13T16:04:41.672Z,12.97
2019-01-13T16:07:11.986Z,12.23
2019-01-13T16:09:42.286Z,10.90
2019-01-13T16:12:12.594Z,11.63
2019-01-13T16:14:43.005Z,10.87
2019-01-13T16:17:14.927Z,13.73
2019-01-13T16:19:45.331Z,11.53
2019-01-13T16:22:15.613Z,11.17
2019-01-13T16:24:45.917Z,9.90
2019-01-13T16:27:16.821Z,11.90
2019-01-13T16:29:47.500Z,15.13
2019-01-13T16:32:17.766Z,12.70
2019-01-13T16:34:49.443Z,12.67
2019-01-13T16:37:20.256Z,12.10
2019-01-13T16:39:50.673Z,10.73
2019-01-13T16:42:21.069Z,12.17
2019-01-13T16:44:51.418Z,10.23
2019-01-13T16:47:22.381Z,10.33
2019-01-13T16:49:52.664Z,22.80
2019-01-13T16:52:24.385Z,13.33
2019-01-13T16:54:54.711Z,11.03
2019-01-13T16:57:25.960Z,15.97
2019-01-13T16:59:57.136Z,13.10
2019-01-13T17:02:33.039Z,11.77
2019-01-13T17:04:59.620Z,17.97
2019-01-13T17:07:30.950Z,13.40
2019-01-13T17:10:01.236Z,15.90
2019-01-13T17:12:31.519Z,13.80
2019-01-13T17:15:01.906Z,12.47
2019-01-13T17:17:33.769Z,17.07
2019-01-13T17:20:04.839Z,16.70
2019-01-13T17:22:35.139Z,14.27
2019-01-13T17:25:07.225Z,15.60
2019-01-13T17:27:38.068Z,17.27
2019-01-13T17:30:12.901Z,12.67
2019-01-13T17:32:43.247Z,14.53
2019-01-13T17:35:13.672Z,18.83
2019-01-13T17:37:43.996Z,16.33
2019-01-13T17:40:16.298Z,17.13
2019-01-13T17:42:47.105Z,18.87
2019-01-13T17:45:18.906Z,18.67
2019-01-13T17:47:49.461Z,16.67
2019-01-13T17:50:22.299Z,15.10
2019-01-13T17:52:53.460Z,18.60
2019-01-13T17:55:25.195Z,20.77
2019-01-13T17:57:57.180Z,16.20
2019-01-13T18:00:40.174Z,17.13
2019-01-13T18:03:13.042Z,16.10
2019-01-13T18:05:44.761Z,15.27
2019-01-13T18:08:16.491Z,12.60
2019-01-13T18:10:49.791Z,11.53
2019-01-13T18:13:22.274Z,13.17
2019-01-13T18:15:54.225Z,16.03
2019-01-13T18:18:26.277Z,15.97
2019-01-13T18:20:57.896Z,14.77
2019-01-13T18:23:31.430Z,12.50
2019-01-13T18:26:03.796Z,9.80
2019-01-13T18:28:39.600Z,7.07
2019-01-13T18:31:11.006Z,11.63
2019-01-13T18:33:42.375Z,10.50
2019-01-13T18:36:14.425Z,7.77
2019-01-13T18:38:45.471Z,7.93
2019-01-13T18:41:18.352Z,11.53
2019-01-13T18:43:51.829Z,11.37
2019-01-13T18:46:23.926Z,9.50
2019-01-13T18:48:56.391Z,9.07
2019-01-13T18:51:29.310Z,13.50
2019-01-13T18:54:02.180Z,9.47
2019-01-13T18:56:34.023Z,10.63
2019-01-13T18:59:07.973Z,16.57
2019-01-13T19:01:39.397Z,13.07
2019-01-13T19:04:13.214Z,13.73
2019-01-13T19:06:45.480Z,14.33
2019-01-13T19:09:18.465Z,10.80
2019-01-13T19:11:54.071Z,14.93
2019-01-13T19:14:48.623Z,15.53
2019-01-13T19:17:28.878Z,9.23
2019-01-13T19:20:29.497Z,9.77
2019-01-13T19:23:05.761Z,11.23
2019-01-13T19:25:39.471Z,8.53
2019-01-13T19:28:17.884Z,8.50
2019-01-13T19:30:51.083Z,13.10
2019-01-13T19:33:23.340Z,3.83
2019-01-13T19:35:57.473Z,4.70
2019-01-13T19:38:31.473Z,6.50
2019-01-13T19:41:02.245Z,3.73
2019-01-13T19:43:32.556Z,7.80
2019-01-13T19:46:04.231Z,6.33
2019-01-13T19:48:34.495Z,7.40
2019-01-13T19:51:05.359Z,7.53
2019-01-13T19:53:35.614Z,6.93
2019-01-13T19:56:06.029Z,9.87
2019-01-13T19:58:36.319Z,17.83
2019-01-13T20:01:08.272Z,10.57
2019-01-13T20:03:38.561Z,9.57
2019-01-13T20:06:09.159Z,8.10
2019-01-13T20:08:39.561Z,12.33
2019-01-13T20:11:10.402Z,14.50
2019-01-13T20:13:40.709Z,10.97
2019-01-13T20:16:12.120Z,15.37
2019-01-13T20:18:42.421Z,18.30
2019-01-13T20:21:14.230Z,16.87
2019-01-13T20:23:44.560Z,18.63
2019-01-13T20:26:14.888Z,17.77
2019-01-13T20:28:45.186Z,25.50
2019-01-13T20:31:17.378Z,21.07
2019-01-13T20:33:47.665Z,18.17
2019-01-13T20:36:18.066Z,24.83
2019-01-13T20:38:48.372Z,20.33
2019-01-13T20:41:19.171Z,20.10
2019-01-13T20:43:49.444Z,21.07
2019-01-13T20:46:20.824Z,21.50
2019-01-13T20:48:51.144Z,20.13
2019-01-13T20:51:21.938Z,20.17
2019-01-13T20:53:52.249Z,19.70
2019-01-13T20:56:22.558Z,23.60
2019-01-13T20:58:52.892Z,16.37
2019-01-13T21:01:23.774Z,16.57
2019-01-13T21:03:55.786Z,17.20
2019-01-13T21:06:26.099Z,17.27
2019-01-13T21:08:56.830Z,21.03
2019-01-13T21:11:27.585Z,16.60
2019-01-13T21:13:57.911Z,12.90
2019-01-13T21:16:28.428Z,21.40
2019-01-13T21:18:58.690Z,15.30
2019-01-13T21:21:30.308Z,16.43
2019-01-13T21:24:01.965Z,17.97
2019-01-13T21:26:34.179Z,12.10
2019-01-13T21:29:04.585Z,15.77
2019-01-13T21:31:35.025Z,14.83
2019-01-13T21:34:05.416Z,14.03
2019-01-13T21:36:35.760Z,17.37
2019-01-13T21:39:10.367Z,15.00
2019-01-13T21:41:41.227Z,11.70
2019-01-13T21:44:11.553Z,10.53
2019-01-13T21:46:41.859Z,13.20
2019-01-13T21:49:12.501Z,19.10
2019-01-13T21:51:44.252Z,10.43
2019-01-13T21:54:16.150Z,19.87
2019-01-13T21:56:46.436Z,20.70
2019-01-13T21:59:16.707Z,18.20
2019-01-13T22:01:47.091Z,17.43
2019-01-13T22:04:17.922Z,16.40
2019-01-13T22:06:51.190Z,16.50
2019-01-13T22:09:21.479Z,26.07
2019-01-13T22:11:51.823Z,14.60
2019-01-13T22:14:22.120Z,24.07
2019-01-13T22:16:53.290Z,17.30
2019-01-13T22:19:23.545Z,23.30
2019-01-13T22:21:55.797Z,19.90
2019-01-13T22:24:26.083Z,26.67
2019-01-13T22:26:56.903Z,22.47
2019-01-13T22:29:27.250Z,24.17
2019-01-13T22:31:57.556Z,22.20
2019-01-13T22:34:27.949Z,24.03
2019-01-13T22:36:58.825Z,20.07
2019-01-13T22:39:29.125Z,21.50
2019-01-13T22:41:59.493Z,21.97
2019-01-13T22:44:29.821Z,25.27
2019-01-13T22:47:00.635Z,22.73
2019-01-13T22:49:30.983Z,29.13
2019-01-13T22:52:01.368Z,14.53
2019-01-13T22:54:31.668Z,19.43
2019-01-13T22:57:02.079Z,19.33
2019-01-13T22:59:32.842Z,20.27
2019-01-13T23:02:03.624Z,20.47
2019-01-13T23:04:33.971Z,27.03
2019-01-13T23:07:04.685Z,21.67
2019-01-13T23:09:35.462Z,23.97
2019-01-13T23:12:05.922Z,16.90
2019-01-13T23:14:36.211Z,16.53
2019-01-13T23:17:06.571Z,16.47
2019-01-13T23:19:36.860Z,17.67
2019-01-13T23:22:09.063Z,18.53
2019-01-13T23:24:39.368Z,20.77
2019-01-13T23:27:09.663Z,16.83
2019-01-13T23:29:40.479Z,19.43
2019-01-13T23:32:11.312Z,23.50
2019-01-13T23:34:41.647Z,16.33
2019-01-13T23:37:13.119Z,14.00
2019-01-13T23:39:43.546Z,18.90
2019-01-13T23:42:15.215Z,21.70
2019-01-13T23:44:47.039Z,14.40
2019-01-13T23:47:19.664Z,20.77
2019-01-13T23:49:51.106Z,25.63
2019-01-13T23:52:23.802Z,24.73
2019-01-13T23:54:56.065Z,19.43
2019-01-13T23:57:30.799Z,23.07
